Time;durP1;ratioP1;P1;durP2;ratioP2;P2;SDS_P1;SDS_P2;PMS_P1;PMS_P2;Temp;Humidity;BMP_temperature;BMP_pressure;BME280_temperature;BME280_humidity;BME280_pressure;Samples;Min_cycle;Max_cycle;Signal;HPM_P1;HPM_P2
2022/04/03 00:02:13;;;;;;;11.80;10.65;;;;;;;;;;6096097;23;20054;-87
2022/04/03 00:04:41;;;;;;;6.22;5.70;;;;;;;;;;6101703;23;20030;-87
2022/04/03 00:07:11;;;;;;;9.63;8.60;;;;;;;;;;6104532;23;20342;-89
2022/04/03 00:09:39;;;;;;;13.23;10.27;;;;;;;;;;6097085;23;20022;-87
2022/04/03 00:12:07;;;;;;;9.23;8.32;;;;;;;;;;6104874;23;20011;-88
2022/04/03 00:14:35;;;;;;;13.00;9.68;;;;;;;;;;6094238;23;20469;-89
2022/04/03 00:17:03;;;;;;;11.23;6.88;;;;;;;;;;6100528;23;20033;-88
2022/04/03 00:19:31;;;;;;;10.02;8.75;;;;;;;;;;6103884;23;20330;-88
2022/04/03 00:22:01;;;;;;;11.50;10.07;;;;;;;;;;6096852;23;20041;-87
2022/04/03 00:24:29;;;;;;;6.22;5.63;;;;;;;;;;6076538;23;20022;-87
2022/04/03 00:26:57;;;;;;;9.35;8.50;;;;;;;;;;6104620;23;20014;-88
2022/04/03 00:29:25;;;;;;;10.27;9.20;;;;;;;;;;6072984;23;20027;-88
2022/04/03 00:31:54;;;;;;;12.27;9.85;;;;;;;;;;6104999;23;20339;-88
2022/04/03 00:34:22;;;;;;;9.93;7.57;;;;;;;;;;6094898;23;20022;-88
2022/04/03 00:36:53;;;;;;;8.82;7.38;;;;;;;;;;6101117;23;20038;-88
2022/04/03 00:39:22;;;;;;;8.82;6.32;;;;;;;;;;6103509;23;20021;-88
2022/04/03 00:41:51;;;;;;;13.23;7.68;;;;;;;;;;6097139;23;20041;-88
2022/04/03 00:44:19;;;;;;;10.35;8.32;;;;;;;;;;6103515;23;20014;-88
2022/04/03 00:46:47;;;;;;;8.48;7.68;;;;;;;;;;6104452;23;20452;-88
2022/04/03 00:49:16;;;;;;;9.02;7.03;;;;;;;;;;6098952;23;20470;-88
2022/04/03 00:51:44;;;;;;;10.30;8.77;;;;;;;;;;6104362;23;20021;-88
2022/04/03 00:54:12;;;;;;;8.93;7.45;;;;;;;;;;6094834;23;20466;-89
2022/04/03 00:56:40;;;;;;;9.35;7.97;;;;;;;;;;6101596;23;20030;-89
2022/04/03 00:59:11;;;;;;;6.10;5.35;;;;;;;;;;6103454;23;20021;-87
2022/04/03 01:01:43;;;;;;;5.32;4.85;;;;;;;;;;6097880;23;20033;-89
2022/04/03 01:04:12;;;;;;;8.88;6.88;;;;;;;;;;6103913;23;20014;-88
2022/04/03 01:06:40;;;;;;;10.02;6.95;;;;;;;;;;6093616;23;20101;-83
2022/04/03 01:09:08;;;;;;;7.07;6.20;;;;;;;;;;6099446;23;20030;-83
2022/04/03 01:11:36;;;;;;;9.25;5.55;;;;;;;;;;6079370;23;20019;-84
2022/04/03 01:14:05;;;;;;;5.90;5.40;;;;;;;;;;6096617;23;20034;-83
2022/04/03 01:16:35;;;;;;;8.00;5.95;;;;;;;;;;6094238;23;20335;-80
2022/04/03 01:19:04;;;;;;;7.20;6.40;;;;;;;;;;6103282;23;20010;-81
2022/04/03 01:21:32;;;;;;;9.13;6.32;;;;;;;;;;6097839;23;20358;-81
2022/04/03 01:24:00;;;;;;;10.73;9.45;;;;;;;;;;6102800;23;20025;-81
2022/04/03 01:26:28;;;;;;;10.85;7.78;;;;;;;;;;6068751;23;20636;-81
2022/04/03 01:28:56;;;;;;;5.20;4.70;;;;;;;;;;6099735;23;20030;-81
2022/04/03 01:31:24;;;;;;;6.15;5.43;;;;;;;;;;6078577;23;20011;-80
2022/04/03 01:33:52;;;;;;;5.70;4.82;;;;;;;;;;6067254;23;20022;-81
2022/04/03 01:36:21;;;;;;;7.18;6.43;;;;;;;;;;6102610;23;20025;-81
2022/04/03 01:38:49;;;;;;;5.47;4.13;;;;;;;;;;6093535;23;20023;-81
2022/04/03 01:41:17;;;;;;;8.77;7.80;;;;;;;;;;6073413;23;20033;-81
2022/04/03 01:43:45;;;;;;;7.22;6.43;;;;;;;;;;6095169;23;20022;-81
2022/04/03 01:46:13;;;;;;;8.23;7.53;;;;;;;;;;6043402;23;20031;-81
2022/04/03 01:48:41;;;;;;;6.82;6.13;;;;;;;;;;6100060;23;20023;-81
2022/04/03 01:51:09;;;;;;;7.70;4.82;;;;;;;;;;6068438;23;20022;-81
2022/04/03 01:53:37;;;;;;;6.63;6.00;;;;;;;;;;6066953;23;20342;-81
2022/04/03 01:56:08;;;;;;;6.18;5.78;;;;;;;;;;6103426;23;20465;-81
2022/04/03 01:58:36;;;;;;;6.07;5.50;;;;;;;;;;6067161;23;20494;-81
2022/04/03 02:01:04;;;;;;;10.05;7.57;;;;;;;;;;6043638;23;20026;-81
2022/04/03 02:03:33;;;;;;;7.32;6.72;;;;;;;;;;6103057;23;20034;-81
2022/04/03 02:06:01;;;;;;;9.68;8.73;;;;;;;;;;6069904;23;20034;-81
2022/04/03 02:08:29;;;;;;;6.78;5.40;;;;;;;;;;6100708;23;20025;-81
2022/04/03 02:10:58;;;;;;;8.07;6.85;;;;;;;;;;6103467;23;20021;-81
2022/04/03 02:13:26;;;;;;;6.68;5.97;;;;;;;;;;6072119;23;20038;-81
2022/04/03 02:15:54;;;;;;;6.88;6.03;;;;;;;;;;6103394;23;20025;-81
2022/04/03 02:18:22;;;;;;;6.70;6.20;;;;;;;;;;6066526;23;20034;-81
2022/04/03 02:20:50;;;;;;;9.15;8.18;;;;;;;;;;6099886;23;20019;-81
2022/04/03 02:23:18;;;;;;;8.32;6.10;;;;;;;;;;6077085;23;20025;-81
2022/04/03 02:25:49;;;;;;;8.48;7.68;;;;;;;;;;6071133;23;20023;-81
2022/04/03 02:28:18;;;;;;;7.82;7.10;;;;;;;;;;6090397;23;20022;-81
2022/04/03 02:30:47;;;;;;;9.50;7.55;;;;;;;;;;6103305;23;20019;-81
2022/04/03 02:33:15;;;;;;;13.77;8.15;;;;;;;;;;6098429;23;20026;-81
2022/04/03 02:35:43;;;;;;;8.77;7.60;;;;;;;;;;6103611;23;20031;-81
2022/04/03 02:38:11;;;;;;;7.47;6.95;;;;;;;;;;6065945;23;20018;-81
2022/04/03 02:40:39;;;;;;;6.95;5.60;;;;;;;;;;6066333;23;20022;-81
2022/04/03 02:43:07;;;;;;;10.38;8.93;;;;;;;;;;6103456;23;20014;-81
2022/04/03 02:45:35;;;;;;;9.63;7.80;;;;;;;;;;6097074;23;20327;-81
2022/04/03 02:48:04;;;;;;;7.82;6.80;;;;;;;;;;6091143;23;20018;-81
2022/04/03 02:50:32;;;;;;;10.27;8.57;;;;;;;;;;6067999;23;20037;-81
2022/04/03 02:53:01;;;;;;;10.52;8.35;;;;;;;;;;6098412;23;20350;-81
2022/04/03 02:55:29;;;;;;;7.82;6.95;;;;;;;;;;6077544;23;20038;-81
2022/04/03 02:57:57;;;;;;;10.02;8.77;;;;;;;;;;6094984;23;20022;-82
2022/04/03 03:00:25;;;;;;;11.27;9.40;;;;;;;;;;6075872;23;20390;-81
2022/04/03 03:02:53;;;;;;;11.45;8.75;;;;;;;;;;6077516;23;20442;-81
2022/04/03 03:05:21;;;;;;;13.98;8.77;;;;;;;;;;6097839;23;20030;-81
2022/04/03 03:07:49;;;;;;;19.08;7.28;;;;;;;;;;6101912;23;20014;-81
2022/04/03 03:10:19;;;;;;;7.05;6.10;;;;;;;;;;6094069;23;20022;-81
2022/04/03 03:12:48;;;;;;;12.75;10.55;;;;;;;;;;6100056;23;20031;-82
2022/04/03 03:15:16;;;;;;;10.18;8.85;;;;;;;;;;6103007;23;20018;-81
2022/04/03 03:17:45;;;;;;;11.00;10.10;;;;;;;;;;6095889;23;20461;-81
2022/04/03 03:20:21;;;;;;;14.70;8.30;;;;;;;;;;6066625;23;20019;-81
2022/04/03 03:22:50;;;;;;;13.35;10.23;;;;;;;;;;6067157;23;20022;-81
2022/04/03 03:25:18;;;;;;;11.20;10.20;;;;;;;;;;6098141;23;20027;-81
2022/04/03 03:27:47;;;;;;;20.02;10.25;;;;;;;;;;6102919;23;20018;-81
2022/04/03 03:30:16;;;;;;;13.15;11.65;;;;;;;;;;6067102;23;20023;-81
2022/04/03 03:32:47;;;;;;;9.57;8.45;;;;;;;;;;6101401;23;20034;-85
2022/04/03 03:35:18;;;;;;;12.45;10.95;;;;;;;;;;6083390;23;20037;-84
2022/04/03 03:37:46;;;;;;;12.48;10.77;;;;;;;;;;6101093;23;20026;-84
2022/04/03 03:40:17;;;;;;;11.73;9.10;;;;;;;;;;6107893;23;20019;-84
2022/04/03 03:42:58;;;;;;;10.75;9.50;;;;;;;;;;6109461;23;20017;-86
2022/04/03 03:45:28;;;;;;;13.57;10.40;;;;;;;;;;6104040;23;20509;-85
2022/04/03 03:48:10;;;;;;;13.90;12.48;;;;;;;;;;6109469;23;20261;-85
2022/04/03 03:55:49;;;;;;;15.55;10.93;;;;;;;;;;6092580;23;20025;-85
2022/04/03 03:58:27;;;;;;;16.85;11.15;;;;;;;;;;6100160;23;20477;-86
2022/04/03 04:01:14;;;;;;;14.32;10.80;;;;;;;;;;6076152;23;20032;-85
2022/04/03 04:04:01;;;;;;;9.05;8.13;;;;;;;;;;6098318;23;20338;-85
2022/04/03 04:06:42;;;;;;;13.63;10.27;;;;;;;;;;6081268;23;20459;-85
2022/04/03 04:09:12;;;;;;;12.45;10.95;;;;;;;;;;6089387;23;20019;-85
2022/04/03 04:11:40;;;;;;;12.68;9.82;;;;;;;;;;6104126;23;20014;-85
2022/04/03 04:14:20;;;;;;;8.88;7.07;;;;;;;;;;6098638;23;20029;-88
2022/04/03 04:16:48;;;;;;;7.00;5.63;;;;;;;;;;6079900;23;20030;-86
2022/04/03 04:19:59;;;;;;;18.10;13.50;;;;;;;;;;6098119;23;20018;-85
2022/04/03 04:22:29;;;;;;;7.82;6.60;;;;;;;;;;6073355;23;20033;-85
2022/04/03 04:24:57;;;;;;;13.13;9.35;;;;;;;;;;6090937;23;20026;-86
2022/04/03 04:27:28;;;;;;;10.18;7.63;;;;;;;;;;6108920;23;20021;-86
2022/04/03 04:29:59;;;;;;;12.52;9.27;;;;;;;;;;6073950;23;20446;-86
2022/04/03 04:32:37;;;;;;;11.63;10.00;;;;;;;;;;6094823;23;20022;-86
2022/04/03 04:35:13;;;;;;;12.23;8.38;;;;;;;;;;6109532;23;20011;-85
2022/04/03 04:38:13;;;;;;;14.50;11.63;;;;;;;;;;6091040;23;20029;-87
2022/04/03 04:44:20;;;;;;;10.45;9.00;;;;;;;;;;6097723;23;20343;-85
2022/04/03 04:46:51;;;;;;;13.50;9.02;;;;;;;;;;6109555;23;20017;-86
2022/04/03 04:50:04;;;;;;;12.27;10.82;;;;;;;;;;6049282;23;20018;-88
2022/04/03 04:52:42;;;;;;;12.00;9.07;;;;;;;;;;6070155;23;20015;-86
2022/04/03 04:55:32;;;;;;;;;;;;;;;;;;6112524;23;20431;-87
2022/04/03 04:58:50;;;;;;;11.38;9.00;;;;;;;;;;6074638;23;19924;-87
2022/04/03 05:01:25;;;;;;;11.10;9.57;;;;;;;;;;6103813;23;20023;-86
2022/04/03 05:03:53;;;;;;;10.60;8.05;;;;;;;;;;6109983;23;20037;-85
2022/04/03 05:10:21;;;;;;;12.65;11.40;;;;;;;;;;6100936;23;20438;-86
2022/04/03 05:13:25;;;;;;;11.75;9.57;;;;;;;;;;6093049;23;20023;-86
2022/04/03 05:16:19;;;;;;;10.70;8.70;;;;;;;;;;6109672;23;20017;-87
2022/04/03 05:18:55;;;;;;;13.38;9.10;;;;;;;;;;6085069;23;20023;-87
2022/04/03 05:22:23;;;;;;;8.18;7.47;;;;;;;;;;6094090;23;20022;-87
2022/04/03 05:25:01;;;;;;;10.35;8.60;;;;;;;;;;6103132;23;20033;-85
2022/04/03 05:27:34;;;;;;;12.15;10.68;;;;;;;;;;6106994;23;20578;-86
2022/04/03 05:30:15;;;;;;;11.30;8.38;;;;;;;;;;6098857;23;20022;-86
2022/04/03 05:32:43;;;;;;;11.13;9.93;;;;;;;;;;6104229;23;20018;-86
2022/04/03 05:35:13;;;;;;;11.43;9.57;;;;;;;;;;6106949;23;20014;-85
2022/04/03 05:37:44;;;;;;;7.57;5.95;;;;;;;;;;6100117;23;20354;-85
2022/04/03 05:40:15;;;;;;;9.95;8.65;;;;;;;;;;6105944;23;20018;-85
2022/04/03 05:42:44;;;;;;;9.15;6.78;;;;;;;;;;6095740;23;20357;-87
2022/04/03 05:45:15;;;;;;;11.80;7.82;;;;;;;;;;6101798;23;20030;-85
2022/04/03 05:48:05;;;;;;;;;;;;;;;;;;;;;
2022/04/03 05:50:38;;;;;;;8.77;7.93;;;;;;;;;;6095754;23;20022;-85
2022/04/03 05:53:07;;;;;;;9.32;7.75;;;;;;;;;;6099025;23;20031;-86
2022/04/03 05:55:35;;;;;;;5.78;5.45;;;;;;;;;;6103081;23;20025;-84
2022/04/03 05:58:27;;;;;;;11.07;9.10;;;;;;;;;;6097366;23;20030;-87
2022/04/03 06:01:20;;;;;;;10.98;9.48;;;;;;;;;;6094666;23;20035;-86
2022/04/03 06:03:51;;;;;;;10.13;9.20;;;;;;;;;;6105649;23;20439;-85
2022/04/03 06:06:19;;;;;;;5.82;5.10;;;;;;;;;;6096075;23;20029;-84
2022/04/03 06:08:47;;;;;;;8.88;6.28;;;;;;;;;;6077609;23;20018;-84
2022/04/03 06:11:18;;;;;;;9.90;7.82;;;;;;;;;;6106298;23;20021;-85
2022/04/03 06:14:10;;;;;;;10.27;9.27;;;;;;;;;;6084427;23;20455;-86
2022/04/03 06:16:58;;;;;;;10.38;8.43;;;;;;;;;;6094196;23;20019;-83
2022/04/03 06:19:26;;;;;;;13.73;10.18;;;;;;;;;;6101824;23;20474;-83
2022/04/03 06:21:54;;;;;;;9.80;8.75;;;;;;;;;;6096236;23;20029;-83
2022/04/03 06:24:23;;;;;;;13.82;7.22;;;;;;;;;;6102385;23;20029;-83
2022/04/03 06:26:51;;;;;;;11.52;9.90;;;;;;;;;;6104305;23;20019;-83
2022/04/03 06:29:19;;;;;;;10.18;8.98;;;;;;;;;;6098904;23;20027;-83
2022/04/03 06:31:47;;;;;;;11.93;7.57;;;;;;;;;;6104114;23;20339;-83
2022/04/03 06:34:15;;;;;;;7.53;6.10;;;;;;;;;;6094875;23;20034;-82
2022/04/03 06:36:43;;;;;;;7.15;6.22;;;;;;;;;;6101444;23;20033;-83
2022/04/03 06:39:11;;;;;;;9.60;6.22;;;;;;;;;;6103468;23;20014;-82
2022/04/03 06:41:39;;;;;;;8.05;6.93;;;;;;;;;;6072658;23;20037;-83
2022/04/03 06:44:07;;;;;;;12.02;8.85;;;;;;;;;;6104324;23;20311;-82
2022/04/03 06:46:35;;;;;;;8.32;7.53;;;;;;;;;;6068225;23;20027;-82
2022/04/03 06:49:03;;;;;;;11.27;9.57;;;;;;;;;;6100739;23;20037;-83
2022/04/03 06:51:31;;;;;;;9.63;7.80;;;;;;;;;;6079244;23;20026;-82
2022/04/03 06:53:59;;;;;;;9.45;8.55;;;;;;;;;;6111232;23;20025;-82
2022/04/03 06:56:27;;;;;;;9.75;7.28;;;;;;;;;;6155831;23;20025;-81
2022/04/03 06:58:55;;;;;;;6.78;5.32;;;;;;;;;;6166029;23;20013;-81
2022/04/03 07:01:23;;;;;;;6.93;6.20;;;;;;;;;;6187108;23;20032;-81
2022/04/03 07:03:52;;;;;;;10.35;6.50;;;;;;;;;;6192437;23;20017;-81
2022/04/03 07:06:20;;;;;;;9.70;8.25;;;;;;;;;;6157325;23;20028;-81
2022/04/03 07:08:48;;;;;;;7.63;6.95;;;;;;;;;;6188870;23;20801;-81
2022/04/03 07:11:16;;;;;;;5.78;5.22;;;;;;;;;;6192327;23;20067;-81
2022/04/03 07:13:45;;;;;;;9.70;7.75;;;;;;;;;;6185402;23;20021;-81
2022/04/03 07:16:13;;;;;;;9.73;8.48;;;;;;;;;;6157276;23;20458;-81
2022/04/03 07:18:41;;;;;;;9.52;7.05;;;;;;;;;;6183306;23;20028;-81
2022/04/03 07:21:09;;;;;;;12.23;9.38;;;;;;;;;;6190024;23;20025;-81
2022/04/03 07:23:37;;;;;;;10.75;7.43;;;;;;;;;;6193935;23;20021;-81
2022/04/03 07:26:05;;;;;;;11.82;8.55;;;;;;;;;;6185761;23;20416;-81
2022/04/03 07:28:33;;;;;;;8.40;6.75;;;;;;;;;;6157339;23;20373;-81
2022/04/03 07:31:01;;;;;;;9.32;8.27;;;;;;;;;;6194441;23;20020;-81
2022/04/03 07:33:30;;;;;;;12.82;8.00;;;;;;;;;;6188015;23;20029;-81
2022/04/03 07:35:58;;;;;;;11.45;10.18;;;;;;;;;;6194376;23;20013;-81
2022/04/03 07:38:26;;;;;;;5.90;5.40;;;;;;;;;;6157647;23;20021;-80
2022/04/03 07:40:54;;;;;;;8.43;6.32;;;;;;;;;;6188671;23;20333;-81
2022/04/03 07:43:23;;;;;;;11.82;6.15;;;;;;;;;;6194231;23;20013;-81
2022/04/03 07:45:51;;;;;;;5.72;5.07;;;;;;;;;;6187055;23;20025;-81
2022/04/03 07:48:19;;;;;;;8.65;7.85;;;;;;;;;;6166805;23;20017;-82
2022/04/03 07:50:48;;;;;;;7.15;6.43;;;;;;;;;;6194263;23;20013;-81
2022/04/03 07:53:16;;;;;;;6.60;6.03;;;;;;;;;;6188530;23;20032;-82
2022/04/03 07:55:45;;;;;;;6.30;5.82;;;;;;;;;;6185043;23;20021;-81
2022/04/03 07:58:13;;;;;;;6.28;5.65;;;;;;;;;;6185133;23;20025;-81
2022/04/03 08:00:41;;;;;;;12.95;6.80;;;;;;;;;;6191353;23;20021;-81
2022/04/03 08:03:10;;;;;;;7.90;6.70;;;;;;;;;;6193850;23;20013;-81
2022/04/03 08:05:38;;;;;;;9.35;7.15;;;;;;;;;;6183016;23;20021;-81
2022/04/03 08:08:06;;;;;;;7.80;6.85;;;;;;;;;;6193701;23;20511;-81
2022/04/03 08:10:34;;;;;;;6.07;5.57;;;;;;;;;;6183669;23;20025;-80
2022/04/03 08:13:02;;;;;;;12.32;8.20;;;;;;;;;;6190194;23;20017;-81
2022/04/03 08:15:30;;;;;;;10.10;6.93;;;;;;;;;;6193771;23;20348;-82
2022/04/03 08:17:58;;;;;;;7.22;6.72;;;;;;;;;;6156452;23;20029;-80
2022/04/03 08:20:26;;;;;;;7.20;6.32;;;;;;;;;;6192009;23;20021;-81
2022/04/03 08:22:55;;;;;;;7.38;6.30;;;;;;;;;;6183645;23;20017;-81
2022/04/03 08:25:23;;;;;;;8.57;6.57;;;;;;;;;;6188244;23;20032;-80
2022/04/03 08:27:52;;;;;;;9.15;6.95;;;;;;;;;;6167592;23;20013;-80
2022/04/03 08:30:21;;;;;;;7.32;6.63;;;;;;;;;;6158053;23;20444;-80
2022/04/03 08:32:49;;;;;;;6.50;5.40;;;;;;;;;;6190355;23;20032;-81
2022/04/03 08:35:18;;;;;;;6.47;5.72;;;;;;;;;;6193776;23;20013;-81
2022/04/03 08:37:46;;;;;;;8.35;5.70;;;;;;;;;;6160377;23;20029;-80
2022/04/03 08:40:19;;;;;;;6.60;5.82;;;;;;;;;;6191589;23;20016;-80
2022/04/03 08:42:49;;;;;;;6.95;6.18;;;;;;;;;;6193854;23;20016;-81
2022/04/03 08:45:18;;;;;;;6.35;5.35;;;;;;;;;;6162340;23;20459;-80
2022/04/03 08:47:53;;;;;;;6.70;5.70;;;;;;;;;;6193491;23;20009;-80
2022/04/03 08:50:25;;;;;;;9.73;6.22;;;;;;;;;;6184008;23;20048;-80
2022/04/03 08:52:53;;;;;;;;;;;;;;;;;;6190526;23;20022;-81
2022/04/03 08:55:21;;;;;;;6.85;6.28;;;;;;;;;;6186143;23;19935;-79
2022/04/03 08:57:51;;;;;;;8.15;7.07;;;;;;;;;;6184400;23;20037;-80
2022/04/03 09:00:19;;;;;;;6.85;5.88;;;;;;;;;;6190625;23;20017;-80
2022/04/03 09:02:47;;;;;;;9.10;7.13;;;;;;;;;;6193341;23;20009;-80
2022/04/03 09:05:15;;;;;;;5.78;4.65;;;;;;;;;;6188077;23;20029;-79
2022/04/03 09:07:44;;;;;;;8.40;7.00;;;;;;;;;;6193356;23;20024;-80
2022/04/03 09:10:13;;;;;;;8.30;7.38;;;;;;;;;;6184239;23;20025;-81
2022/04/03 09:12:46;;;;;;;6.07;4.90;;;;;;;;;;6191171;23;20017;-79
2022/04/03 09:15:15;;;;;;;8.40;7.60;;;;;;;;;;6193126;23;20016;-79
2022/04/03 09:17:49;;;;;;;9.38;8.27;;;;;;;;;;6186263;23;20033;-80
2022/04/03 09:20:24;;;;;;;9.88;8.82;;;;;;;;;;6191746;23;20341;-81
2022/04/03 09:22:53;;;;;;;10.13;7.38;;;;;;;;;;6192952;23;20017;-80
2022/04/03 09:25:29;;;;;;;9.00;8.05;;;;;;;;;;6185983;23;20025;-80
2022/04/03 09:28:04;;;;;;;8.52;7.22;;;;;;;;;;6166686;23;20343;-79
2022/04/03 09:30:33;;;;;;;9.30;8.32;;;;;;;;;;6182760;23;20025;-80
2022/04/03 09:33:02;;;;;;;9.35;7.35;;;;;;;;;;6189097;23;20036;-79
2022/04/03 09:35:33;;;;;;;12.13;8.75;;;;;;;;;;6193155;23;20017;-79
2022/04/03 09:38:01;;;;;;;;;;;;;;;;;;6185180;23;20350;-80
2022/04/03 09:40:33;;;;;;;9.57;8.38;;;;;;;;;;6191634;23;19927;-80
2022/04/03 09:43:27;;;;;;;8.20;6.80;;;;;;;;;;6193556;23;20013;-79
2022/04/03 09:45:56;;;;;;;11.35;7.00;;;;;;;;;;6177473;23;20369;-79
2022/04/03 09:48:32;;;;;;;9.02;7.35;;;;;;;;;;6191244;23;20013;-79
2022/04/03 09:51:03;;;;;;;7.90;7.18;;;;;;;;;;6193190;23;20020;-80
2022/04/03 09:53:43;;;;;;;12.75;7.53;;;;;;;;;;6185169;23;20021;-81
2022/04/03 09:56:13;;;;;;;7.50;6.13;;;;;;;;;;6191694;23;20329;-80
2022/04/03 09:58:45;;;;;;;12.02;10.93;;;;;;;;;;6179219;23;20033;-79
2022/04/03 10:01:23;;;;;;;9.55;7.22;;;;;;;;;;6186970;23;20029;-79
2022/04/03 10:03:52;;;;;;;6.63;6.00;;;;;;;;;;6191549;23;20021;-79
2022/04/03 10:06:20;;;;;;;12.93;10.45;;;;;;;;;;6180785;23;20039;-79
2022/04/03 10:08:48;;;;;;;10.65;7.43;;;;;;;;;;6188148;23;20032;-79
2022/04/03 10:11:16;;;;;;;11.48;10.45;;;;;;;;;;6155422;23;20028;-79
2022/04/03 10:13:44;;;;;;;10.18;9.00;;;;;;;;;;6158899;23;20025;-78
2022/04/03 10:16:13;;;;;;;12.10;9.05;;;;;;;;;;6191725;23;20013;-79
2022/04/03 10:18:42;;;;;;;11.25;10.00;;;;;;;;;;6153949;23;20071;-79
2022/04/03 10:21:25;;;;;;;11.20;8.20;;;;;;;;;;6186597;23;20029;-78
2022/04/03 10:23:53;;;;;;;8.80;7.82;;;;;;;;;;6164926;23;20013;-79
2022/04/03 10:26:22;;;;;;;12.48;9.50;;;;;;;;;;6182163;23;20025;-81
2022/04/03 10:28:53;;;;;;;14.05;7.82;;;;;;;;;;6188473;23;20032;-79
2022/04/03 10:31:21;;;;;;;9.93;8.27;;;;;;;;;;6191187;23;20013;-79
2022/04/03 10:33:50;;;;;;;9.38;8.45;;;;;;;;;;6184109;23;20025;-79
2022/04/03 10:36:26;;;;;;;10.80;7.90;;;;;;;;;;6189079;23;20010;-79
2022/04/03 10:39:00;;;;;;;9.93;6.90;;;;;;;;;;6165095;23;20013;-83
2022/04/03 10:41:34;;;;;;;11.13;6.80;;;;;;;;;;6159725;23;20021;-80
2022/04/03 10:44:18;;;;;;;8.70;7.80;;;;;;;;;;6154787;23;20017;-88
2022/04/03 10:47:05;;;;;;;10.85;7.50;;;;;;;;;;6139380;23;20029;-87
2022/04/03 10:49:40;;;;;;;6.03;5.57;;;;;;;;;;6159537;23;20021;-85
2022/04/03 10:52:09;;;;;;;14.93;10.65;;;;;;;;;;6156731;23;20052;-87
2022/04/03 10:54:45;;;;;;;12.90;10.95;;;;;;;;;;6132222;23;1148305;-85
2022/04/03 10:57:31;;;;;;;11.02;9.10;;;;;;;;;;6163711;23;20025;-86
2022/04/03 11:00:15;;;;;;;13.93;9.80;;;;;;;;;;6109558;23;20017;-79
2022/04/03 11:02:44;;;;;;;9.63;8.50;;;;;;;;;;6156500;23;20025;-78
2022/04/03 11:05:24;;;;;;;7.88;6.30;;;;;;;;;;6183848;23;20349;-78
2022/04/03 11:08:07;;;;;;;8.48;7.22;;;;;;;;;;6133522;23;20021;-79
2022/04/03 11:10:48;;;;;;;6.78;6.15;;;;;;;;;;6184071;23;20025;-78
2022/04/03 11:13:17;;;;;;;7.53;6.70;;;;;;;;;;6189323;23;20037;-78
2022/04/03 11:15:55;;;;;;;5.70;5.30;;;;;;;;;;6194486;23;20024;-78
2022/04/03 11:18:30;;;;;;;7.65;6.05;;;;;;;;;;6158713;23;20071;-77
2022/04/03 11:21:18;;;;;;;10.32;9.32;;;;;;;;;;6190812;23;20025;-77
2022/04/03 11:23:49;;;;;;;7.22;6.53;;;;;;;;;;6183965;23;20445;-77
2022/04/03 11:26:17;;;;;;;8.20;7.05;;;;;;;;;;6185432;23;20586;-78
2022/04/03 11:28:46;;;;;;;9.23;8.32;;;;;;;;;;6191618;23;20021;-77
2022/04/03 11:31:14;;;;;;;7.55;6.53;;;;;;;;;;6194269;23;20013;-85
2022/04/03 11:33:43;;;;;;;5.40;5.00;;;;;;;;;;6132830;23;20025;-89
2022/04/03 11:36:12;;;;;;;9.02;7.82;;;;;;;;;;6158364;23;20040;-88
2022/04/03 11:38:40;;;;;;;9.30;7.80;;;;;;;;;;6127819;23;20640;-85
2022/04/03 11:41:12;;;;;;;7.60;6.90;;;;;;;;;;6132825;23;20024;-88
2022/04/03 11:43:40;;;;;;;8.90;8.02;;;;;;;;;;6168444;23;20013;-89
2022/04/03 11:46:09;;;;;;;8.13;7.30;;;;;;;;;;6108645;23;20488;-88
2022/04/03 11:48:45;;;;;;;6.38;5.82;;;;;;;;;;6165458;23;20021;-88
2022/04/03 11:51:14;;;;;;;7.70;6.00;;;;;;;;;;6168324;23;20032;-86
2022/04/03 11:53:43;;;;;;;5.93;5.05;;;;;;;;;;6160917;23;20500;-78
2022/04/03 11:56:14;;;;;;;8.98;7.72;;;;;;;;;;6194178;23;20012;-78
2022/04/03 11:58:42;;;;;;;6.95;6.32;;;;;;;;;;6182996;23;20021;-79
2022/04/03 12:01:11;;;;;;;13.05;8.63;;;;;;;;;;6189095;23;20025;-78
2022/04/03 12:03:39;;;;;;;4.97;4.55;;;;;;;;;;6193820;23;20013;-78
2022/04/03 12:06:12;;;;;;;8.48;7.03;;;;;;;;;;6159432;23;20349;-78
2022/04/03 12:08:47;;;;;;;13.40;7.53;;;;;;;;;;6190641;23;20021;-79
2022/04/03 12:11:15;;;;;;;7.85;7.05;;;;;;;;;;6167996;23;20021;-79
2022/04/03 12:13:43;;;;;;;8.52;6.22;;;;;;;;;;6186899;23;20032;-79
2022/04/03 12:16:31;;;;;;;8.88;6.80;;;;;;;;;;6132771;23;20017;-78
2022/04/03 12:19:08;;;;;;;6.38;5.82;;;;;;;;;;6146005;23;20033;-79
2022/04/03 12:21:36;;;;;;;8.32;7.55;;;;;;;;;;6187378;23;20021;-79
2022/04/03 12:24:15;;;;;;;6.85;6.15;;;;;;;;;;6193384;23;20013;-80
2022/04/03 12:26:54;;;;;;;9.73;6.32;;;;;;;;;;6182958;23;20021;-80
2022/04/03 12:29:23;;;;;;;5.28;4.78;;;;;;;;;;6188528;23;20029;-80
2022/04/03 12:31:58;;;;;;;7.57;6.93;;;;;;;;;;6167484;23;20032;-81
2022/04/03 12:34:27;;;;;;;6.15;5.55;;;;;;;;;;6183587;23;20024;-80
2022/04/03 12:36:56;;;;;;;8.25;7.55;;;;;;;;;;6190253;23;20040;-80
2022/04/03 12:39:43;;;;;;;6.45;5.95;;;;;;;;;;6193512;23;20020;-80
2022/04/03 12:42:29;;;;;;;9.45;6.10;;;;;;;;;;6183062;23;20021;-80
2022/04/03 12:44:59;;;;;;;7.40;6.75;;;;;;;;;;6163694;23;20038;-80
2022/04/03 12:47:30;;;;;;;7.05;6.25;;;;;;;;;;6156939;23;20032;-81
2022/04/03 12:50:07;;;;;;;5.22;3.65;;;;;;;;;;6156613;23;20032;-80
2022/04/03 12:52:39;;;;;;;7.05;5.95;;;;;;;;;;6132107;23;20009;-80
2022/04/03 12:55:07;;;;;;;;;;;;;;;;;;6161569;23;20017;-80
2022/04/03 13:00:22;;;;;;;9.18;6.32;;;;;;;;;;6157110;23;20021;-86
2022/04/03 13:02:54;;;;;;;8.63;7.90;;;;;;;;;;6167116;23;20334;-88
2022/04/03 13:05:22;;;;;;;7.45;6.93;;;;;;;;;;6131643;23;20028;-79
2022/04/03 13:07:50;;;;;;;9.23;8.45;;;;;;;;;;6155397;23;20024;-80
2022/04/03 13:10:19;;;;;;;7.05;5.55;;;;;;;;;;6183433;23;20028;-79
2022/04/03 13:12:48;;;;;;;5.82;5.22;;;;;;;;;;6155412;23;20028;-79
2022/04/03 13:15:17;;;;;;;8.57;7.93;;;;;;;;;;6166362;23;20357;-79
2022/04/03 13:17:46;;;;;;;10.15;8.57;;;;;;;;;;6185465;23;20025;-80
2022/04/03 13:20:14;;;;;;;7.57;6.82;;;;;;;;;;6181752;23;20009;-79
2022/04/03 13:22:42;;;;;;;6.55;6.05;;;;;;;;;;6130809;23;20025;-79
2022/04/03 13:25:16;;;;;;;5.70;5.13;;;;;;;;;;6187819;23;20376;-80
2022/04/03 13:27:44;;;;;;;4.68;4.30;;;;;;;;;;6192174;23;20009;-79
2022/04/03 13:30:12;;;;;;;6.15;5.55;;;;;;;;;;6183721;23;20025;-79
2022/04/03 13:32:40;;;;;;;5.93;5.32;;;;;;;;;;6189603;23;20025;-79
2022/04/03 13:35:08;;;;;;;6.18;5.57;;;;;;;;;;6192561;23;20020;-80
2022/04/03 13:37:36;;;;;;;4.80;4.30;;;;;;;;;;6184448;23;20028;-80
2022/04/03 13:40:05;;;;;;;4.43;4.03;;;;;;;;;;6191345;23;20020;-80
2022/04/03 13:42:33;;;;;;;3.42;3.22;;;;;;;;;;6156209;23;20025;-80
2022/04/03 13:45:01;;;;;;;5.57;5.18;;;;;;;;;;6188312;23;20021;-80
2022/04/03 13:47:29;;;;;;;4.03;3.63;;;;;;;;;;6191749;23;20020;-80
2022/04/03 13:49:57;;;;;;;3.80;3.47;;;;;;;;;;6184295;23;20036;-80
2022/04/03 13:52:25;;;;;;;7.28;3.83;;;;;;;;;;6190845;23;20017;-80
2022/04/03 13:54:54;;;;;;;1.85;1.75;;;;;;;;;;6160544;23;20044;-79
2022/04/03 13:57:22;;;;;;;5.53;4.95;;;;;;;;;;6186880;23;20029;-80
2022/04/03 13:59:51;;;;;;;6.18;5.63;;;;;;;;;;6165402;23;20017;-80
2022/04/03 14:02:19;;;;;;;4.38;3.97;;;;;;;;;;6156364;23;20025;-80
2022/04/03 14:04:47;;;;;;;4.47;4.07;;;;;;;;;;6130681;23;20445;-80
2022/04/03 14:07:15;;;;;;;5.60;4.65;;;;;;;;;;6191903;23;20024;-80
2022/04/03 14:09:43;;;;;;;4.35;3.80;;;;;;;;;;6157255;23;20035;-79
2022/04/03 14:12:11;;;;;;;5.88;4.95;;;;;;;;;;6165502;23;20487;-79
2022/04/03 14:14:42;;;;;;;;;;;;;;;;;;6155073;23;20352;-80
2022/04/03 14:17:10;;;;;;;3.88;3.47;;;;;;;;;;6187362;23;19920;-80
2022/04/03 14:19:39;;;;;;;5.57;5.07;;;;;;;;;;6191405;23;20020;-79
2022/04/03 14:22:07;;;;;;;3.55;3.25;;;;;;;;;;6183329;23;20028;-79
2022/04/03 14:24:36;;;;;;;7.53;6.82;;;;;;;;;;6153687;23;20025;-81
2022/04/03 14:27:04;;;;;;;18.23;5.47;;;;;;;;;;6191580;23;20437;-80
2022/04/03 14:29:32;;;;;;;5.10;4.65;;;;;;;;;;6159178;23;20025;-80
2022/04/03 14:32:00;;;;;;;5.45;4.95;;;;;;;;;;6191882;23;20017;-81
2022/04/03 14:34:28;;;;;;;5.65;5.25;;;;;;;;;;6181631;23;20036;-82
2022/04/03 14:36:56;;;;;;;5.97;5.47;;;;;;;;;;6162144;23;20495;-80
2022/04/03 14:39:25;;;;;;;4.00;3.47;;;;;;;;;;6129430;23;20043;-79
2022/04/03 14:41:54;;;;;;;5.90;5.30;;;;;;;;;;6184127;23;20021;-80
2022/04/03 14:44:22;;;;;;;2.30;2.20;;;;;;;;;;6190920;23;20662;-80
2022/04/03 14:46:50;;;;;;;5.88;5.38;;;;;;;;;;6191863;23;20437;-81
2022/04/03 14:49:18;;;;;;;5.50;5.10;;;;;;;;;;6186394;23;20025;-80
2022/04/03 14:51:48;;;;;;;5.43;4.22;;;;;;;;;;6191815;23;20035;-79
2022/04/03 14:54:16;;;;;;;4.95;3.55;;;;;;;;;;6181881;23;20025;-79
2022/04/03 14:56:44;;;;;;;5.10;4.70;;;;;;;;;;6162965;23;20017;-79
2022/04/03 14:59:12;;;;;;;4.20;3.80;;;;;;;;;;6192123;23;20032;-80
2022/04/03 15:01:40;;;;;;;5.22;4.47;;;;;;;;;;6185159;23;20475;-80
2022/04/03 15:04:08;;;;;;;4.03;3.50;;;;;;;;;;6191790;23;20024;-79
2022/04/03 15:06:37;;;;;;;2.63;2.42;;;;;;;;;;6180888;23;20032;-78
2022/04/03 15:09:05;;;;;;;4.55;4.15;;;;;;;;;;6159844;23;20024;-79
2022/04/03 15:11:33;;;;;;;4.03;3.72;;;;;;;;;;6191484;23;20024;-78
2022/04/03 15:14:01;;;;;;;4.57;3.83;;;;;;;;;;6183757;23;20040;-78
2022/04/03 15:16:29;;;;;;;3.55;3.33;;;;;;;;;;6154236;23;20017;-78
2022/04/03 15:18:57;;;;;;;7.63;3.50;;;;;;;;;;6190815;23;20013;-78
2022/04/03 15:21:26;;;;;;;9.02;3.90;;;;;;;;;;6185981;23;20032;-83